Time;durP1;ratioP1;P1;durP2;ratioP2;P2;SDS_P1;SDS_P2;PMS_P1;PMS_P2;Temp;Humidity;BMP_temperature;BMP_pressure;BME280_temperature;BME280_humidity;BME280_pressure;Samples;Min_cycle;Max_cycle;Signal;HPM_P1;HPM_P2
2024/03/11 03:51:56;;;;;;;4.30;2.90;;;;;;;-2.71;100.00;101867.92;106537;1252;73378;-84
2024/03/11 03:54:36;;;;;;;5.50;3.00;;;;;;;-2.69;100.00;101868.30;106290;1259;68302;-87
2024/03/11 03:57:04;;;;;;;4.20;2.60;;;;;;;-2.66;100.00;101869.95;106448;1255;72808;-84
2024/03/11 03:59:44;;;;;;;7.20;2.60;;;;;;;-2.67;100.00;101872.20;106448;1256;61284;-84
2024/03/11 04:02:24;;;;;;;5.30;2.90;;;;;;;-2.71;100.00;101877.36;106481;1254;61228;-87
2024/03/11 04:05:04;;;;;;;5.70;2.80;;;;;;;-2.74;100.00;101876.63;106615;1251;74578;-83
2024/03/11 04:07:32;;;;;;;6.80;3.80;;;;;;;-2.75;100.00;101876.70;106233;1257;68403;-87
2024/03/11 04:10:13;;;;;;;5.60;2.70;;;;;;;-2.71;100.00;101878.85;107375;1256;70606;-87
2024/03/11 04:12:55;;;;;;;6.70;3.20;;;;;;;-2.68;100.00;101879.20;106394;1254;61298;-87
2024/03/11 04:15:40;;;;;;;5.90;2.50;;;;;;;-2.64;100.00;101876.66;106362;1254;61697;-87
2024/03/11 04:18:20;;;;;;;5.10;2.60;;;;;;;-2.65;100.00;101875.14;106476;1260;74726;-85
2024/03/11 04:21:00;;;;;;;5.00;2.70;;;;;;;-2.64;100.00;101877.56;106602;1256;68686;-86
2024/03/11 04:23:41;;;;;;;3.30;2.20;;;;;;;-2.60;100.00;101880.23;106462;1258;71369;-84
2024/03/11 04:26:21;;;;;;;4.50;2.50;;;;;;;-2.57;100.00;101884.42;106507;1255;60399;-84
2024/03/11 04:29:05;;;;;;;5.60;2.90;;;;;;;-2.57;100.00;101886.86;106503;1255;61299;-87
2024/03/11 04:31:45;;;;;;;4.90;2.70;;;;;;;-2.58;100.00;101890.91;107347;1253;72412;-87
2024/03/11 04:34:26;;;;;;;5.20;2.90;;;;;;;-2.57;100.00;101896.32;106114;1258;67253;-86
2024/03/11 04:37:06;;;;;;;5.00;3.10;;;;;;;-2.67;100.00;101900.86;106543;1254;72458;-87
2024/03/11 04:39:46;;;;;;;5.60;3.50;;;;;;;-2.62;100.00;101901.39;106250;1260;61359;-88
2024/03/11 04:42:25;;;;;;;5.40;2.80;;;;;;;-2.53;100.00;101900.35;106319;1254;61165;-83
2024/03/11 04:45:06;;;;;;;5.60;2.70;;;;;;;-2.47;100.00;101906.19;106264;1257;74666;-88
2024/03/11 04:47:45;;;;;;;39.20;18.20;;;;;;;-2.35;100.00;101911.73;107048;1258;67256;-88
2024/03/11 04:50:26;;;;;;;15.50;7.40;;;;;;;-2.37;100.00;101912.26;106491;1256;72635;-83
2024/03/11 04:53:07;;;;;;;7.80;4.10;;;;;;;-2.38;100.00;101915.76;106367;1254;61422;-86
2024/03/11 04:55:47;;;;;;;7.00;3.80;;;;;;;-2.25;100.00;101911.05;106316;1251;61257;-83
2024/03/11 04:58:27;;;;;;;5.80;2.90;;;;;;;-2.15;100.00;101910.87;106357;1259;74668;-83
2024/03/11 05:01:08;;;;;;;12.90;6.70;;;;;;;-2.07;100.00;101917.36;106386;1256;68343;-88
2024/03/11 05:03:47;;;;;;;7.00;4.40;;;;;;;-1.98;100.00;101924.11;106628;1254;71484;-88
2024/03/11 05:06:27;;;;;;;6.00;3.80;;;;;;;-1.89;100.00;101924.76;106524;1251;61185;-84
2024/03/11 05:09:07;;;;;;;10.20;4.70;;;;;;;-1.83;100.00;101930.60;106302;1256;61075;-86
2024/03/11 05:11:48;;;;;;;8.10;4.50;;;;;;;-1.77;100.00;101934.02;106454;1256;74666;-84
2024/03/11 05:14:28;;;;;;;9.00;4.70;;;;;;;-1.66;100.00;101942.59;106727;1253;68357;-84
2024/03/11 05:17:08;;;;;;;6.40;4.20;;;;;;;-1.57;100.00;101941.24;106360;1257;71457;-83
2024/03/11 05:19:49;;;;;;;6.50;3.80;;;;;;;-1.48;100.00;101945.12;106274;1251;61301;-83
2024/03/11 05:22:28;;;;;;;6.70;3.30;;;;;;;-1.36;100.00;101951.89;106473;1251;61155;-83
2024/03/11 05:25:08;;;;;;;7.00;3.40;;;;;;;-1.30;100.00;101956.37;106348;1251;74689;-83
2024/03/11 05:27:51;;;;;;;5.20;3.40;;;;;;;-1.20;100.00;101960.38;106288;1251;69171;-83
2024/03/11 05:30:31;;;;;;;7.80;4.20;;;;;;;-1.12;100.00;101964.61;106485;1264;72682;-83
2024/03/11 05:33:11;;;;;;;7.10;3.70;;;;;;;-1.03;100.00;101971.56;106402;1258;61263;-84
2024/03/11 05:35:51;;;;;;;7.20;3.40;;;;;;;-0.92;100.00;101974.33;106447;1252;61176;-87
2024/03/11 05:38:31;;;;;;;10.10;4.10;;;;;;;-0.85;100.00;101978.94;106475;1251;73328;-87
2024/03/11 05:41:11;;;;;;;9.50;4.10;;;;;;;-0.76;100.00;101987.44;106427;1251;68289;-87
2024/03/11 05:43:52;;;;;;;7.40;4.50;;;;;;;-0.64;100.00;101987.61;106216;1255;72666;-83
2024/03/11 05:46:31;;;;;;;5.90;3.70;;;;;;;-0.71;100.00;101990.48;106842;1254;61758;-83
2024/03/11 05:49:15;;;;;;;10.70;4.30;;;;;;;-0.69;100.00;101990.05;106538;1251;61210;-83
2024/03/11 05:51:54;;;;;;;6.60;3.80;;;;;;;-0.58;100.00;101997.16;106790;1251;73698;-84
2024/03/11 05:54:29;;;;;;;6.20;3.90;;;;;;;-0.41;100.00;102001.02;106507;1254;68446;-84
2024/03/11 05:57:09;;;;;;;7.70;3.70;;;;;;;-0.50;100.00;102000.86;108295;1252;72793;-84
2024/03/11 05:59:43;;;;;;;9.70;3.90;;;;;;;-0.40;100.00;102006.63;106557;1256;61333;-84
2024/03/11 06:02:21;;;;;;;7.90;3.80;;;;;;;-0.26;100.00;102004.45;106364;1250;61179;-83
2024/03/11 06:05:02;;;;;;;8.20;4.40;;;;;;;-0.19;99.73;102005.48;106290;1257;74114;-84
2024/03/11 06:07:37;;;;;;;9.20;4.40;;;;;;;-0.16;99.43;102010.19;106506;1251;66911;-86
2024/03/11 06:10:16;;;;;;;8.60;5.20;;;;;;;0.03;98.36;102015.23;106616;1254;72690;-86
2024/03/11 06:12:57;;;;;;;6.20;4.20;;;;;;;0.14;96.77;102018.41;106899;1251;61270;-85
2024/03/11 06:15:38;;;;;;;8.40;5.10;;;;;;;0.20;95.27;102019.38;106373;1254;61199;-83
2024/03/11 06:18:17;;;;;;;7.50;4.40;;;;;;;0.31;92.34;102026.88;106349;1251;74640;-84
2024/03/11 06:20:57;;;;;;;12.20;7.00;;;;;;;0.31;88.29;102018.63;106564;1251;68425;-84
2024/03/11 06:23:38;;;;;;;13.10;4.90;;;;;;;0.35;89.34;102025.59;106337;1256;71348;-83
2024/03/11 06:26:18;;;;;;;21.20;9.30;;;;;;;0.40;88.22;102029.78;106641;1251;61263;-83
2024/03/11 06:29:00;;;;;;;15.90;6.60;;;;;;;0.39;89.32;102034.12;106426;1257;61356;-84
2024/03/11 06:31:36;;;;;;;29.00;15.70;;;;;;;0.52;85.77;102035.17;106413;1255;73440;-83
2024/03/11 06:34:21;;;;;;;16.20;7.80;;;;;;;0.64;84.42;102035.10;106263;1251;68652;-83
2024/03/11 06:36:55;;;;;;;5.80;3.70;;;;;;;0.73;81.40;102036.77;106215;1256;72705;-83
2024/03/11 06:39:31;;;;;;;8.00;4.50;;;;;;;0.73;81.23;102037.69;106477;1257;61289;-83
2024/03/11 06:42:13;;;;;;;6.30;3.50;;;;;;;0.77;81.19;102043.41;106273;1257;61205;-83
2024/03/11 06:44:46;;;;;;;9.50;5.40;;;;;;;0.79;81.19;102046.27;106403;1257;74587;-83
2024/03/11 06:47:26;;;;;;;6.50;3.80;;;;;;;0.89;81.67;102048.03;106373;1251;67546;-84
2024/03/11 06:50:00;;;;;;;8.10;4.50;;;;;;;1.06;79.48;102046.80;106273;1257;73702;-84
2024/03/11 06:52:34;;;;;;;12.20;4.90;;;;;;;1.17;79.76;102047.48;106403;1251;61627;-86
2024/03/11 06:55:16;;;;;;;10.70;4.80;;;;;;;1.30;78.11;102045.23;106376;1251;61177;-83
2024/03/11 06:57:56;;;;;;;9.70;4.50;;;;;;;1.43;74.33;102048.06;106577;1257;77450;-84
2024/03/11 07:00:30;;;;;;;10.90;5.10;;;;;;;1.52;72.45;102043.91;106449;1251;68396;-82
2024/03/11 07:03:10;;;;;;;9.50;4.70;;;;;;;1.66;72.42;102046.06;106340;1254;72900;-89
2024/03/11 07:05:50;;;;;;;20.90;6.50;;;;;;;1.82;71.65;102047.36;106613;1254;61614;-83
2024/03/11 07:08:23;;;;;;;8.90;4.20;;;;;;;1.97;69.65;102048.17;106528;1256;62406;-85
2024/03/11 07:11:00;;;;;;;5.00;3.10;;;;;;;2.05;66.83;102044.95;106662;1257;76754;-84
2024/03/11 07:13:36;;;;;;;14.50;5.60;;;;;;;2.07;66.29;102046.25;106312;1257;69639;-80
2024/03/11 07:16:16;;;;;;;6.80;3.20;;;;;;;2.12;66.41;102046.30;106514;1251;75033;-80
2024/03/11 07:18:54;;;;;;;11.50;5.80;;;;;;;2.21;65.39;102052.98;106599;1253;61520;-81
2024/03/11 07:21:28;;;;;;;16.20;7.00;;;;;;;2.26;64.49;102054.05;106456;1256;61158;-84
2024/03/11 07:24:10;;;;;;;13.70;5.60;;;;;;;2.34;63.30;102057.20;106250;1257;77029;-84
2024/03/11 07:26:50;;;;;;;13.40;5.60;;;;;;;2.43;61.75;102054.77;106340;1251;68715;-80
2024/03/11 07:29:25;;;;;;;12.40;4.40;;;;;;;2.54;61.16;102052.46;106447;1253;73862;-85
2024/03/11 07:31:59;;;;;;;12.90;5.60;;;;;;;2.62;60.26;102052.02;106256;1254;61247;-85
2024/03/11 07:34:42;;;;;;;9.60;3.70;;;;;;;2.65;59.51;102054.34;106351;1251;62363;-84
2024/03/11 07:37:23;;;;;;;5.30;3.20;;;;;;;2.64;60.01;102053.91;106252;1251;76931;-85
2024/03/11 07:39:57;;;;;;;13.80;5.70;;;;;;;2.63;59.50;102059.05;106376;1250;67257;-84
2024/03/11 07:42:32;;;;;;;10.40;4.90;;;;;;;2.65;58.98;102059.88;107652;1251;73823;-86
2024/03/11 07:45:13;;;;;;;19.00;6.50;;;;;;;2.72;58.26;102055.60;106511;1254;61343;-80
2024/03/11 07:47:53;;;;;;;11.10;4.20;;;;;;;2.76;57.65;102059.84;106775;1256;61244;-80
2024/03/11 07:50:22;;;;;;;9.20;3.90;;;;;;;2.77;57.48;102057.20;106496;1256;74814;-80
2024/03/11 07:53:02;;;;;;;12.70;4.50;;;;;;;2.89;57.03;102059.10;106610;1251;70355;-84
2024/03/11 07:55:42;;;;;;;11.90;4.80;;;;;;;2.97;55.82;102067.25;106396;1250;74865;-80
2024/03/11 07:58:16;;;;;;;10.20;4.50;;;;;;;3.05;55.46;102066.52;106407;1257;61319;-80
2024/03/11 08:00:44;;;;;;;6.10;3.30;;;;;;;3.15;55.03;102063.60;106598;1251;62595;-84
2024/03/11 08:03:19;;;;;;;15.50;5.00;;;;;;;3.23;54.23;102061.39;106404;1254;76724;-85
2024/03/11 08:05:55;;;;;;;10.30;4.40;;;;;;;3.32;54.52;102058.25;106399;1257;70575;-87
2024/03/11 08:08:30;;;;;;;12.60;5.70;;;;;;;3.36;54.57;102063.73;106526;1251;75059;-83
2024/03/11 08:10:58;;;;;;;6.80;3.90;;;;;;;3.35;54.62;102060.10;106349;1251;61936;-82
2024/03/11 08:13:31;;;;;;;12.80;4.50;;;;;;;3.40;53.74;102069.30;106256;1254;62038;-85
2024/03/11 08:16:05;;;;;;;10.50;4.60;;;;;;;3.48;52.84;102070.21;106792;1251;75898;-82
2024/03/11 08:18:33;;;;;;;8.40;3.80;;;;;;;3.57;53.40;102070.05;106548;1253;69879;-85
2024/03/11 08:21:03;;;;;;;16.20;5.80;;;;;;;3.64;52.79;102071.91;106544;1251;75073;-85
2024/03/11 08:23:31;;;;;;;8.70;4.20;;;;;;;3.73;52.24;102077.07;106507;1251;61349;-84
2024/03/11 08:26:08;;;;;;;7.20;3.50;;;;;;;3.73;52.13;102069.57;106546;1257;61205;-81
2024/03/11 08:28:48;;;;;;;11.30;5.20;;;;;;;3.73;51.76;102073.11;106451;1254;75153;-83
2024/03/11 08:31:16;;;;;;;9.10;4.40;;;;;;;3.78;52.21;102075.69;106410;1257;70763;-81
2024/03/11 08:33:50;;;;;;;4.90;2.70;;;;;;;3.93;51.69;102076.03;106282;1254;74887;-81
2024/03/11 08:36:24;;;;;;;5.30;2.90;;;;;;;4.04;50.54;102078.04;106434;1251;61247;-85
2024/03/11 08:38:58;;;;;;;11.40;4.20;;;;;;;3.95;49.87;102082.09;107540;1251;62091;-81
2024/03/11 08:41:26;;;;;;;5.30;3.50;;;;;;;3.84;50.26;102083.91;106345;1258;75506;-86
2024/03/11 08:43:54;;;;;;;9.00;3.30;;;;;;;3.83;50.18;102083.48;106582;1251;69601;-81
2024/03/11 08:46:29;;;;;;;7.50;3.60;;;;;;;3.79;50.27;102075.16;106484;1254;74578;-87
2024/03/11 08:49:04;;;;;;;7.90;3.20;;;;;;;3.77;50.03;102079.07;106639;1257;61512;-86
2024/03/11 08:51:31;;;;;;;6.30;2.90;;;;;;;3.86;49.67;102078.85;106392;1254;61350;-85
2024/03/11 08:54:09;;;;;;;12.10;4.10;;;;;;;3.89;48.86;102078.66;106337;1254;76530;-85
2024/03/11 08:56:44;;;;;;;11.90;3.40;;;;;;;3.92;49.49;102076.32;106442;1252;70002;-86
2024/03/11 08:59:12;;;;;;;7.00;3.40;;;;;;;4.06;48.44;102078.13;106912;1254;74086;-80
2024/03/11 09:01:59;;;;;;;9.40;3.50;;;;;;;4.14;48.57;102077.83;106385;1254;61362;-86
2024/03/11 09:04:28;;;;;;;7.50;3.20;;;;;;;4.16;48.83;102075.27;106538;1251;61327;-86
2024/03/11 09:07:04;;;;;;;5.00;2.70;;;;;;;4.09;47.58;102076.25;106271;1253;76863;-85
2024/03/11 09:09:38;;;;;;;4.00;2.70;;;;;;;4.02;47.37;102069.45;106313;1254;69786;-86
2024/03/11 09:12:06;;;;;;;6.30;2.90;;;;;;;3.93;49.10;102069.20;106302;1253;73818;-87
2024/03/11 09:14:47;;;;;;;14.60;4.10;;;;;;;3.88;49.53;102074.52;106749;1251;61907;-88
2024/03/11 09:17:27;;;;;;;10.70;4.10;;;;;;;3.91;48.44;102072.64;106396;1252;60873;-86
2024/03/11 09:20:01;;;;;;;7.00;3.20;;;;;;;3.91;47.49;102075.51;106377;1253;75633;-86
2024/03/11 09:22:41;;;;;;;6.20;3.10;;;;;;;3.92;47.46;102077.23;106399;1253;67398;-85
2024/03/11 09:25:24;;;;;;;13.30;5.00;;;;;;;3.88;47.39;102077.52;106243;1253;74989;-85
2024/03/11 09:28:08;;;;;;;27.00;12.30;;;;;;;3.90;47.11;102078.92;106284;1257;61283;-85
2024/03/11 09:30:43;;;;;;;11.70;5.10;;;;;;;3.98;46.88;102076.98;106416;1253;61513;-81
2024/03/11 09:33:23;;;;;;;5.90;2.70;;;;;;;4.04;46.71;102072.63;107239;1251;76921;-86
2024/03/11 09:36:03;;;;;;;12.70;5.90;;;;;;;3.99;47.06;102073.45;107994;1256;71369;-80
2024/03/11 09:38:39;;;;;;;7.60;2.60;;;;;;;3.93;46.48;102075.54;106354;1253;73850;-83
2024/03/11 09:41:17;;;;;;;11.30;3.60;;;;;;;3.87;46.96;102073.86;106587;1254;61247;-80
2024/03/11 09:43:57;;;;;;;5.20;3.00;;;;;;;3.86;47.30;102075.56;106368;1254;61970;-86
2024/03/11 09:46:31;;;;;;;4.30;2.50;;;;;;;3.86;47.01;102077.18;106356;1257;75569;-85
2024/03/11 09:49:05;;;;;;;16.30;8.90;;;;;;;3.92;45.88;102075.44;106349;1253;71404;-80
2024/03/11 09:51:40;;;;;;;3.80;2.30;;;;;;;4.02;45.81;102077.39;106324;1251;73895;-88
2024/03/11 09:54:16;;;;;;;7.80;3.70;;;;;;;4.03;46.98;102080.98;106573;1253;61339;-84
2024/03/11 09:56:52;;;;;;;6.20;2.80;;;;;;;4.04;46.36;102082.16;106571;1251;61425;-81
2024/03/11 09:59:30;;;;;;;5.70;3.00;;;;;;;4.02;45.16;102080.27;106525;1253;75793;-82
2024/03/11 10:02:04;;;;;;;3.20;2.30;;;;;;;3.97;46.41;102080.19;106322;1254;69661;-87
2024/03/11 10:04:40;;;;;;;3.30;2.10;;;;;;;3.92;45.76;102074.81;106351;1253;74734;-86
2024/03/11 10:07:14;;;;;;;4.00;2.30;;;;;;;3.91;44.67;102063.48;106303;1257;61327;-82
2024/03/11 10:09:48;;;;;;;3.60;2.50;;;;;;;3.91;45.71;102062.91;106170;1258;61286;-82
2024/03/11 10:12:19;;;;;;;3.30;2.10;;;;;;;3.90;44.84;102063.81;106269;1257;75788;-87
2024/03/11 10:14:53;;;;;;;4.00;2.30;;;;;;;3.87;44.36;102063.34;106207;1251;70642;-82
2024/03/11 10:17:34;;;;;;;3.90;2.30;;;;;;;3.92;43.80;102060.63;106416;1253;74955;-82
2024/03/11 10:20:14;;;;;;;4.80;2.50;;;;;;;3.96;43.39;102056.34;106453;1251;61346;-84
2024/03/11 10:22:47;;;;;;;3.90;2.20;;;;;;;3.95;43.60;102056.62;106512;1253;61596;-81
2024/03/11 10:25:23;;;;;;;5.10;2.60;;;;;;;3.96;44.80;102056.84;107380;1253;76565;-82
2024/03/11 10:28:04;;;;;;;4.50;2.10;;;;;;;4.00;43.29;102059.65;106556;1251;70222;-85
2024/03/11 10:30:38;;;;;;;5.60;2.60;;;;;;;3.95;42.67;102056.77;106519;1251;74755;-81
2024/03/11 10:33:08;;;;;;;3.60;2.30;;;;;;;3.94;42.42;102054.81;106454;1253;61359;-86
2024/03/11 10:35:43;;;;;;;1.60;1.10;;;;;;;3.92;41.80;102049.35;106304;1251;61989;-81
2024/03/11 10:38:18;;;;;;;5.10;2.10;;;;;;;3.94;40.85;102047.38;106582;1253;76670;-81
2024/03/11 10:40:53;;;;;;;5.60;2.30;;;;;;;3.98;41.61;102039.67;106344;1251;69303;-82
2024/03/11 10:43:25;;;;;;;6.30;3.20;;;;;;;4.07;41.88;102044.44;106361;1256;73687;-82
2024/03/11 10:46:07;;;;;;;7.70;3.60;;;;;;;4.12;42.32;102042.35;106428;1256;61421;-87
2024/03/11 10:48:42;;;;;;;5.30;3.00;;;;;;;4.14;43.48;102043.77;106363;1256;61251;-85
2024/03/11 10:51:12;;;;;;;8.90;3.20;;;;;;;4.15;42.55;102038.70;106397;1252;76732;-87
2024/03/11 10:53:46;;;;;;;7.30;3.30;;;;;;;4.13;42.36;102041.65;106268;1257;69199;-86
2024/03/11 10:56:19;;;;;;;4.60;2.40;;;;;;;4.14;42.24;102033.83;106556;1253;73754;-82
2024/03/11 10:58:55;;;;;;;4.20;2.80;;;;;;;4.12;42.53;102034.57;106197;1257;61363;-86
2024/03/11 11:01:39;;;;;;;6.00;3.00;;;;;;;4.13;43.36;102030.82;106444;1251;62279;-82
2024/03/11 11:04:19;;;;;;;4.90;3.20;;;;;;;4.15;43.23;102025.08;106204;1257;77151;-82
2024/03/11 11:06:56;;;;;;;10.30;4.10;;;;;;;4.19;42.72;102024.70;106265;1253;69791;-82
2024/03/11 11:09:31;;;;;;;10.00;4.10;;;;;;;4.25;42.16;102027.91;106893;1254;74790;-82
2024/03/11 11:12:05;;;;;;;7.90;3.40;;;;;;;4.28;42.06;102027.50;108436;1251;61178;-88
2024/03/11 11:14:40;;;;;;;6.50;3.70;;;;;;;4.29;41.87;102025.92;107489;1253;61157;-82
2024/03/11 11:17:23;;;;;;;8.20;3.90;;;;;;;4.28;42.20;102029.21;106544;1251;75943;-88
2024/03/11 11:20:08;;;;;;;10.20;4.80;;;;;;;4.27;42.16;102026.00;106567;1253;70242;-87
2024/03/11 11:22:49;;;;;;;10.00;4.00;;;;;;;4.24;42.53;102025.10;106359;1251;74914;-85
2024/03/11 11:25:44;;;;;;;13.70;5.20;;;;;;;4.21;42.81;102020.20;106366;1257;61334;-88
2024/03/11 11:28:36;;;;;;;6.00;3.20;;;;;;;4.25;42.26;102024.29;106471;1251;61975;-87
2024/03/11 11:31:26;;;;;;;4.90;2.70;;;;;;;4.22;41.63;102023.19;106434;1255;74670;-81
2024/03/11 11:34:04;;;;;;;6.80;3.70;;;;;;;4.18;42.16;102024.83;106343;1255;70665;-87
2024/03/11 11:36:46;;;;;;;8.10;4.20;;;;;;;4.21;42.20;102019.52;106386;1253;73845;-82
2024/03/11 11:39:29;;;;;;;5.30;2.70;;;;;;;4.20;43.74;102025.80;106340;1255;61648;-83
2024/03/11 11:42:06;;;;;;;6.40;3.20;;;;;;;4.18;43.20;102020.98;106356;1255;61379;-86
2024/03/11 11:44:46;;;;;;;7.90;3.90;;;;;;;4.15;42.63;102016.52;106296;1253;75504;-87
2024/03/11 11:47:20;;;;;;;4.80;3.30;;;;;;;4.10;42.75;102011.83;106447;1254;71172;-81
2024/03/11 11:50:01;;;;;;;6.50;3.40;;;;;;;4.00;43.51;102010.30;106342;1251;74936;-81
2024/03/11 11:52:42;;;;;;;5.90;3.30;;;;;;;3.96;42.86;102004.52;106473;1251;61334;-80
2024/03/11 11:55:18;;;;;;;4.30;2.90;;;;;;;3.90;42.85;102010.05;106392;1252;62486;-87
2024/03/11 11:58:10;;;;;;;8.70;3.30;;;;;;;3.81;42.81;102004.41;106498;1253;76561;-81
2024/03/11 12:00:50;;;;;;;6.50;3.80;;;;;;;3.83;43.93;102004.08;106481;1256;70274;-87
2024/03/11 12:03:30;;;;;;;7.70;3.40;;;;;;;3.80;43.50;102001.55;106480;1253;74972;-82
2024/03/11 12:06:19;;;;;;;6.30;3.00;;;;;;;3.76;42.71;102001.72;106394;1252;61355;-87
2024/03/11 12:09:00;;;;;;;4.70;2.90;;;;;;;3.70;44.30;102000.88;107193;1252;60497;-85
2024/03/11 12:11:28;;;;;;;6.60;3.60;;;;;;;3.69;43.97;101999.66;106674;1251;76052;-87
2024/03/11 12:14:09;;;;;;;7.10;3.90;;;;;;;3.73;43.50;102000.27;106518;1256;70034;-87
2024/03/11 12:16:49;;;;;;;6.50;3.50;;;;;;;3.69;43.31;101997.59;106815;1251;73773;-87
2024/03/11 12:19:26;;;;;;;6.90;3.60;;;;;;;3.65;43.19;101999.14;106334;1256;62069;-86
2024/03/11 12:22:06;;;;;;;7.40;3.40;;;;;;;3.58;43.44;101999.83;106373;1257;61241;-81
2024/03/11 12:24:43;;;;;;;5.30;3.30;;;;;;;3.57;43.19;101997.86;106266;1253;77419;-82
2024/03/11 12:27:20;;;;;;;4.30;3.00;;;;;;;3.59;44.10;102001.41;107471;1253;69695;-82
2024/03/11 12:30:08;;;;;;;8.40;3.90;;;;;;;3.58;42.66;101991.92;106613;1253;74652;-82
2024/03/11 12:32:51;;;;;;;5.40;3.40;;;;;;;3.59;44.08;101993.60;106359;1253;61353;-86
2024/03/11 12:35:32;;;;;;;8.90;4.10;;;;;;;3.65;42.96;101994.52;106353;1253;61416;-82
2024/03/11 12:38:13;;;;;;;7.10;3.70;;;;;;;3.62;42.91;101994.25;106284;1251;76045;-85
2024/03/11 12:40:54;;;;;;;7.80;3.90;;;;;;;3.57;42.14;101993.33;106422;1253;70824;-81
2024/03/11 12:43:41;;;;;;;9.90;4.00;;;;;;;3.54;41.26;101996.84;106399;1253;74719;-81
2024/03/11 12:46:22;;;;;;;25.90;5.10;;;;;;;3.42;41.34;101988.59;106417;1256;61183;-86
2024/03/11 12:49:04;;;;;;;11.50;4.10;;;;;;;3.51;40.85;101988.58;106513;1253;62578;-81
2024/03/11 12:51:47;;;;;;;13.30;4.80;;;;;;;3.46;41.04;101989.28;106764;1253;75462;-87
2024/03/11 12:54:28;;;;;;;13.40;4.30;;;;;;;3.43;40.52;101982.30;106269;1253;70236;-87
2024/03/11 12:57:13;;;;;;;6.50;4.10;;;;;;;3.41;41.02;101976.15;106625;1254;73389;-87
2024/03/11 13:00:09;;;;;;;7.40;4.30;;;;;;;3.40;41.30;101977.13;106521;1256;61350;-87
2024/03/11 13:02:49;;;;;;;11.00;5.20;;;;;;;3.35;41.46;101970.11;106472;1255;61087;-86
2024/03/11 13:05:30;;;;;;;8.50;4.30;;;;;;;3.34;41.36;101970.64;106563;1253;77516;-82
2024/03/11 13:08:12;;;;;;;6.10;3.70;;;;;;;3.27;41.46;101972.23;106309;1251;72403;-87
2024/03/11 13:10:52;;;;;;;8.00;3.90;;;;;;;3.31;41.02;101969.23;106225;1253;74876;-86
2024/03/11 13:13:32;;;;;;;7.00;4.30;;;;;;;3.31;41.08;101964.67;107279;1253;61942;-87
2024/03/11 13:16:09;;;;;;;9.40;4.30;;;;;;;3.29;40.60;101966.06;107742;1253;61270;-88
2024/03/11 13:18:50;;;;;;;8.60;4.80;;;;;;;3.30;40.07;101969.69;106835;1253;75827;-87
2024/03/11 13:21:38;;;;;;;10.00;5.60;;;;;;;3.29;40.21;101971.89;106509;1257;69926;-87
2024/03/11 13:24:12;;;;;;;7.20;4.70;;;;;;;3.23;40.73;101970.08;107350;1253;74742;-87
2024/03/11 13:26:53;;;;;;;8.60;4.70;;;;;;;3.20;41.23;101971.20;107097;1257;61354;-82
2024/03/11 13:29:34;;;;;;;7.70;4.70;;;;;;;3.24;41.82;101971.42;106532;1253;61271;-82
2024/03/11 13:32:08;;;;;;;7.60;4.70;;;;;;;3.24;41.59;101963.98;106484;1256;75903;-88
2024/03/11 13:34:48;;;;;;;5.20;4.10;;;;;;;3.23;42.12;101963.02;106427;1255;70641;-82
2024/03/11 13:37:29;;;;;;;8.80;4.40;;;;;;;3.24;41.89;101959.91;106702;1253;73607;-82
2024/03/11 13:40:09;;;;;;;5.80;3.30;;;;;;;3.22;42.13;101956.45;106244;1256;324486;-82
2024/03/11 13:42:49;;;;;;;5.50;3.00;;;;;;;3.18;41.78;101955.91;106430;1251;62581;-87
2024/03/11 13:45:30;;;;;;;6.40;2.90;;;;;;;3.16;41.75;101952.97;106265;1256;74568;-87
2024/03/11 13:48:11;;;;;;;7.60;3.40;;;;;;;3.14;42.04;101954.11;106340;1257;69203;-87
2024/03/11 13:50:56;;;;;;;4.90;3.00;;;;;;;3.17;42.08;101946.91;106312;1253;74648;-82
2024/03/11 13:53:37;;;;;;;6.10;3.60;;;;;;;3.14;42.66;101940.65;106408;1252;61779;-84
2024/03/11 13:56:14;;;;;;;5.40;3.40;;;;;;;3.14;44.16;101939.73;106279;1253;61855;-82
2024/03/11 13:58:54;;;;;;;4.70;2.90;;;;;;;3.11;44.21;101939.34;106342;1251;75187;-82
2024/03/11 14:01:34;;;;;;;5.60;3.10;;;;;;;3.10;44.03;101939.32;106274;1253;69791;-82
2024/03/11 14:04:14;;;;;;;8.40;3.50;;;;;;;3.03;44.37;101938.35;106420;1253;74352;-86
2024/03/11 14:06:54;;;;;;;7.80;3.80;;;;;;;2.96;44.47;101933.80;106345;1253;61382;-82
2024/03/11 14:09:36;;;;;;;7.50;3.00;;;;;;;2.90;44.77;101930.66;106340;1250;61273;-87
2024/03/11 14:12:18;;;;;;;5.60;2.90;;;;;;;2.84;45.36;101926.23;106539;1250;76719;-82
2024/03/11 14:14:59;;;;;;;6.60;3.60;;;;;;;2.85;44.78;101920.14;106590;1250;69753;-86
2024/03/11 14:17:39;;;;;;;8.70;4.00;;;;;;;2.81;44.79;101918.28;106441;1251;74700;-86
2024/03/11 14:20:24;;;;;;;6.30;3.20;;;;;;;2.78;45.31;101911.64;106400;1254;61560;-81
2024/03/11 14:23:06;;;;;;;6.20;3.00;;;;;;;2.73;46.01;101906.68;108301;1250;62061;-85
2024/03/11 14:25:46;;;;;;;6.20;3.30;;;;;;;2.67;45.85;101898.48;106350;1257;76560;-87
2024/03/11 14:28:25;;;;;;;6.40;3.30;;;;;;;2.64;46.74;101898.70;106666;1256;70659;-85
2024/03/11 14:31:08;;;;;;;7.20;3.30;;;;;;;2.61;46.51;101900.59;106469;1251;75444;-86
2024/03/11 14:33:42;;;;;;;6.80;3.80;;;;;;;2.52;46.68;101903.81;106559;1253;61445;-82
2024/03/11 14:36:22;;;;;;;6.70;3.30;;;;;;;2.48;47.36;101899.45;106503;1254;62282;-86
2024/03/11 14:39:03;;;;;;;11.80;3.70;;;;;;;2.47;47.97;101899.84;106492;1250;76775;-85
2024/03/11 14:41:32;;;;;;;6.70;3.70;;;;;;;2.48;48.32;101901.14;106458;1256;69759;-86
2024/03/11 14:44:12;;;;;;;9.10;4.20;;;;;;;2.43;48.82;101900.29;106091;1253;75613;-85
2024/03/11 14:46:52;;;;;;;7.30;4.10;;;;;;;2.39;49.01;101898.50;106302;1256;61632;-86
2024/03/11 14:49:33;;;;;;;6.20;3.30;;;;;;;2.27;49.35;101899.95;106360;1250;62401;-82
2024/03/11 14:52:14;;;;;;;7.60;4.00;;;;;;;2.19;49.40;101895.70;106416;1253;74398;-86
2024/03/11 14:54:56;;;;;;;8.20;4.00;;;;;;;2.18;49.47;101894.39;106490;1250;68795;-86
2024/03/11 14:57:36;;;;;;;;;;;;;;;2.13;49.68;101889.57;106273;1250;75329;-82
2024/03/11 15:00:20;;;;;;;8.40;4.20;;;;;;;2.05;49.81;101889.91;106371;1257;61444;-87
2024/03/11 15:03:01;;;;;;;5.30;3.60;;;;;;;1.98;49.04;101888.38;106359;1251;61241;-86
2024/03/11 15:05:44;;;;;;;7.10;3.50;;;;;;;1.93;49.40;101886.33;106502;1258;76081;-82
2024/03/11 15:08:28;;;;;;;;;;;;;;;1.88;49.57;101882.80;106478;1256;70712;-82
2024/03/11 15:11:16;;;;;;;10.00;4.30;;;;;;;1.79;49.79;101880.98;106959;1253;73555;-85
2024/03/11 15:13:59;;;;;;;7.90;4.20;;;;;;;1.77;50.51;101877.31;106282;1258;61808;-82
2024/03/11 15:16:40;;;;;;;11.90;5.30;;;;;;;1.72;50.66;101879.89;106501;1251;61362;-82
2024/03/11 15:19:21;;;;;;;12.70;5.40;;;;;;;1.62;50.83;101880.13;106513;1253;75128;-82
2024/03/11 15:21:55;;;;;;;13.40;6.30;;;;;;;1.54;50.96;101882.41;106508;1256;70083;-82
2024/03/11 15:24:29;;;;;;;12.20;5.30;;;;;;;1.48;51.30;101884.60;106421;1253;74094;-87
2024/03/11 15:27:04;;;;;;;16.10;6.20;;;;;;;1.43;51.50;101884.74;106504;1253;61392;-82
2024/03/11 15:29:44;;;;;;;13.60;6.00;;;;;;;1.39;51.62;101887.61;106519;1256;61238;-88
2024/03/11 15:32:25;;;;;;;15.40;7.10;;;;;;;1.31;51.51;101881.02;106358;1255;76120;-82
2024/03/11 15:35:07;;;;;;;22.20;7.50;;;;;;;1.25;51.53;101882.39;106467;1254;69913;-82
2024/03/11 15:37:48;;;;;;;11.50;6.20;;;;;;;1.21;51.41;101875.18;106325;1258;74121;-85
2024/03/11 15:40:29;;;;;;;12.40;5.70;;;;;;;1.14;51.73;101876.98;106154;1257;61354;-82
2024/03/11 15:43:19;;;;;;;9.20;5.50;;;;;;;1.07;52.23;101880.23;106327;1251;61279;-85
2024/03/11 15:46:00;;;;;;;11.50;6.20;;;;;;;1.04;52.58;101881.84;106299;1253;75843;-80
2024/03/11 15:48:37;;;;;;;11.10;5.20;;;;;;;1.00;52.55;101882.04;106383;1258;69867;-80
2024/03/11 15:51:16;;;;;;;15.70;6.80;;;;;;;0.94;52.66;101881.31;106400;1253;74259;-86
2024/03/11 15:53:56;;;;;;;15.10;6.80;;;;;;;0.86;53.06;101882.41;106392;1251;61233;-86
2024/03/11 15:56:37;;;;;;;16.50;6.30;;;;;;;0.81;53.20;101884.17;106521;1253;62409;-86
2024/03/11 15:59:17;;;;;;;12.40;6.60;;;;;;;0.79;53.24;101882.30;106367;1259;75520;-85
2024/03/11 16:01:57;;;;;;;12.90;6.90;;;;;;;0.75;53.39;101885.50;106382;1255;69507;-81